createdAt,value
2018-07-31T00:01:50.075Z,20.80
2018-07-31T00:04:18.464Z,20.70
2018-07-31T00:06:46.883Z,20.70
2018-07-31T00:09:15.218Z,20.70
2018-07-31T00:11:43.558Z,20.60
2018-07-31T00:14:11.980Z,20.60
2018-07-31T00:16:40.342Z,20.60
2018-07-31T00:19:08.746Z,20.60
2018-07-31T00:21:37.168Z,20.60
2018-07-31T00:24:05.560Z,20.50
2018-07-31T00:26:33.900Z,20.50
2018-07-31T00:29:02.276Z,20.20
2018-07-31T00:31:30.648Z,20.20
2018-07-31T00:34:02.868Z,20.40
2018-07-31T00:36:31.276Z,20.40
2018-07-31T00:38:59.640Z,20.50
2018-07-31T00:41:28.035Z,20.50
2018-07-31T00:43:56.415Z,20.50
2018-07-31T00:46:24.770Z,20.40
2018-07-31T00:48:53.538Z,20.40
2018-07-31T00:51:21.964Z,20.40
2018-07-31T00:53:50.326Z,20.40
2018-07-31T00:56:18.737Z,20.40
2018-07-31T00:58:47.178Z,20.40
2018-07-31T01:01:15.562Z,20.40
2018-07-31T01:03:43.928Z,20.30
2018-07-31T01:06:12.358Z,20.20
2018-07-31T01:08:40.774Z,20.30
2018-07-31T01:11:09.194Z,20.20
2018-07-31T01:13:37.556Z,20.20
2018-07-31T01:16:06.005Z,20.20
2018-07-31T01:18:34.348Z,20.30
2018-07-31T01:23:30.998Z,20.20
2018-07-31T01:25:59.432Z,20.30
2018-07-31T01:28:27.812Z,20.30
2018-07-31T01:30:56.238Z,20.40
2018-07-31T01:33:24.788Z,20.40
2018-07-31T01:35:53.140Z,20.40
2018-07-31T01:38:21.516Z,20.50
2018-07-31T01:40:50.078Z,20.60
2018-07-31T01:43:18.502Z,20.50
2018-07-31T01:45:46.901Z,20.50
2018-07-31T01:48:15.334Z,20.50
2018-07-31T01:50:43.738Z,20.50
2018-07-31T01:53:12.161Z,20.50
2018-07-31T01:55:40.550Z,20.50
2018-07-31T01:58:08.904Z,20.50
2018-07-31T02:00:37.276Z,20.50
2018-07-31T02:03:05.726Z,20.50
2018-07-31T02:05:34.090Z,20.50
2018-07-31T02:08:02.453Z,20.40
2018-07-31T02:10:30.846Z,20.40
2018-07-31T02:12:59.280Z,20.40
2018-07-31T02:15:30.954Z,20.40
2018-07-31T02:17:59.310Z,20.40
2018-07-31T02:20:27.652Z,20.40
2018-07-31T02:22:56.020Z,20.40
2018-07-31T02:25:24.482Z,20.40
2018-07-31T02:27:52.963Z,20.40
2018-07-31T02:30:22.488Z,20.40
2018-07-31T02:32:52.116Z,20.40
2018-07-31T02:35:20.604Z,20.40
2018-07-31T02:37:49.004Z,20.40
2018-07-31T02:40:17.458Z,20.40
2018-07-31T02:42:45.860Z,20.40
2018-07-31T02:45:14.930Z,20.30
2018-07-31T02:47:44.146Z,20.30
2018-07-31T02:50:12.610Z,20.30
2018-07-31T02:52:41.300Z,20.30
2018-07-31T02:55:10.670Z,20.20
2018-07-31T02:57:40.288Z,20.20
2018-07-31T03:00:09.750Z,20.20
2018-07-31T03:02:38.140Z,20.20
2018-07-31T03:05:08.026Z,20.20
2018-07-31T03:07:36.446Z,20.20
2018-07-31T03:10:05.854Z,20.20
2018-07-31T03:12:34.219Z,20.20
2018-07-31T03:15:02.618Z,20.20
2018-07-31T03:17:30.968Z,20.20
2018-07-31T03:19:59.314Z,20.20
2018-07-31T03:22:27.685Z,20.20
2018-07-31T03:24:55.997Z,20.20
2018-07-31T03:27:24.378Z,20.20
2018-07-31T03:29:52.721Z,20.30
2018-07-31T03:32:21.050Z,20.20
2018-07-31T03:34:49.374Z,20.20
2018-07-31T03:37:17.714Z,20.20
2018-07-31T03:39:46.050Z,20.20
2018-07-31T03:42:14.464Z,20.20
2018-07-31T03:44:42.905Z,20.30
2018-07-31T03:47:11.301Z,20.20
2018-07-31T03:52:07.721Z,20.20
2018-07-31T03:54:36.970Z,20.20
2018-07-31T03:57:05.338Z,20.10
2018-07-31T03:59:33.703Z,20.10
2018-07-31T04:02:02.127Z,20.10
2018-07-31T04:04:30.519Z,20.10
2018-07-31T04:06:58.809Z,20.00
2018-07-31T04:09:27.165Z,20.10
2018-07-31T04:11:55.631Z,20.10
2018-07-31T04:14:24.085Z,20.20
2018-07-31T04:21:48.677Z,20.40
2018-07-31T04:24:17.161Z,20.40
2018-07-31T04:26:45.557Z,20.40
2018-07-31T04:29:13.972Z,20.30
2018-07-31T04:31:42.328Z,20.30
2018-07-31T04:34:10.742Z,20.30
2018-07-31T04:36:39.153Z,20.40
2018-07-31T04:39:09.406Z,20.50
2018-07-31T04:41:37.783Z,20.60
2018-07-31T04:44:06.267Z,20.70
2018-07-31T04:46:34.611Z,20.70
2018-07-31T04:49:02.962Z,20.70
2018-07-31T04:51:31.490Z,20.70
2018-07-31T04:54:00.418Z,20.60
2018-07-31T04:56:28.851Z,20.60
2018-07-31T04:58:57.311Z,20.60
2018-07-31T05:01:25.749Z,20.80
2018-07-31T05:03:54.145Z,20.80
2018-07-31T05:06:22.561Z,20.70
2018-07-31T05:08:50.932Z,20.70
2018-07-31T05:11:19.297Z,20.60
2018-07-31T05:18:43.850Z,20.60
2018-07-31T05:21:12.325Z,20.60
2018-07-31T05:23:40.808Z,20.70
2018-07-31T05:26:09.246Z,20.80
2018-07-31T05:28:37.669Z,20.90
2018-07-31T05:31:06.086Z,21.00
2018-07-31T05:33:34.445Z,21.00
2018-07-31T05:36:02.895Z,21.00
2018-07-31T05:38:31.294Z,20.80
2018-07-31T05:40:59.684Z,20.70
2018-07-31T05:43:28.217Z,20.60
2018-07-31T05:45:56.596Z,20.60
2018-07-31T05:48:24.993Z,20.70
2018-07-31T05:50:53.406Z,20.70
2018-07-31T05:53:21.822Z,20.70
2018-07-31T05:55:53.332Z,20.80
2018-07-31T05:58:23.866Z,20.90
2018-07-31T06:00:52.228Z,21.10
2018-07-31T06:03:20.678Z,21.10
2018-07-31T06:08:17.127Z,21.20
2018-07-31T06:10:45.506Z,21.10
2018-07-31T06:13:13.883Z,21.30
2018-07-31T06:15:42.298Z,21.40
2018-07-31T06:18:10.687Z,21.70
2018-07-31T06:20:41.083Z,22.00
2018-07-31T06:23:09.473Z,22.30
2018-07-31T06:25:37.900Z,22.40
2018-07-31T06:28:06.444Z,22.70
2018-07-31T06:30:35.831Z,22.90
2018-07-31T06:33:04.238Z,23.10
2018-07-31T06:35:32.671Z,23.30
2018-07-31T06:38:01.073Z,23.30
2018-07-31T06:40:29.477Z,23.50
2018-07-31T06:45:25.904Z,23.90
2018-07-31T06:47:54.310Z,24.20
2018-07-31T06:50:22.663Z,24.40
2018-07-31T06:52:50.975Z,24.60
2018-07-31T06:55:19.402Z,24.80
2018-07-31T06:57:47.758Z,24.90
2018-07-31T07:00:16.115Z,25.00
2018-07-31T07:02:44.472Z,25.20
2018-07-31T07:05:12.926Z,25.20
2018-07-31T07:07:41.295Z,25.30
2018-07-31T07:10:09.684Z,25.30
2018-07-31T07:12:38.198Z,25.50
2018-07-31T07:15:06.574Z,25.60
2018-07-31T07:17:34.915Z,25.60
2018-07-31T07:20:03.277Z,25.70
2018-07-31T07:22:32.727Z,25.80
2018-07-31T07:25:01.083Z,25.70
2018-07-31T07:27:29.414Z,25.70
2018-07-31T07:29:57.810Z,25.50
2018-07-31T07:32:26.186Z,25.30
2018-07-31T07:34:54.530Z,25.30
2018-07-31T07:37:22.889Z,25.20
2018-07-31T07:39:51.257Z,25.00
2018-07-31T07:42:19.652Z,24.90
2018-07-31T07:44:48.090Z,24.90
2018-07-31T07:47:16.483Z,25.00
2018-07-31T07:49:44.817Z,25.20
2018-07-31T07:52:13.220Z,25.30
2018-07-31T07:57:09.663Z,25.40
2018-07-31T07:59:38.479Z,25.50
2018-07-31T08:02:07.861Z,25.50
2018-07-31T08:04:36.334Z,25.60
2018-07-31T08:07:04.784Z,25.60
2018-07-31T08:09:33.261Z,25.70
2018-07-31T08:12:01.685Z,25.90
2018-07-31T08:14:30.088Z,26.10
2018-07-31T08:16:58.493Z,26.10
2018-07-31T08:19:26.871Z,26.10
2018-07-31T08:21:55.314Z,26.20
2018-07-31T08:24:23.646Z,26.40
2018-07-31T08:26:52.085Z,26.40
2018-07-31T08:29:20.513Z,26.50
2018-07-31T08:31:48.984Z,26.70
2018-07-31T08:34:17.396Z,26.70
2018-07-31T08:36:45.784Z,26.60
2018-07-31T08:39:14.195Z,26.30
2018-07-31T08:41:42.644Z,26.30
2018-07-31T08:44:11.001Z,26.40
2018-07-31T08:46:39.385Z,26.40
2018-07-31T08:49:07.775Z,26.50
2018-07-31T08:51:36.177Z,26.70
2018-07-31T08:54:04.579Z,27.00
2018-07-31T08:56:32.993Z,27.40
2018-07-31T08:59:01.405Z,27.60
2018-07-31T09:01:29.827Z,27.60
2018-07-31T09:03:58.301Z,27.60
2018-07-31T09:06:26.692Z,27.50
2018-07-31T09:08:55.219Z,27.40
2018-07-31T09:11:23.671Z,27.30
2018-07-31T09:13:52.161Z,27.40
2018-07-31T09:16:20.539Z,27.40
2018-07-31T09:18:48.930Z,27.30
2018-07-31T09:21:17.331Z,27.30
2018-07-31T09:23:45.711Z,27.30
2018-07-31T09:26:14.077Z,27.20
2018-07-31T09:28:42.479Z,27.20
2018-07-31T09:31:13.393Z,27.20
2018-07-31T09:33:42.133Z,27.30
2018-07-31T09:36:10.539Z,27.30
2018-07-31T09:38:38.981Z,27.40
2018-07-31T09:41:07.489Z,27.60
2018-07-31T09:43:35.981Z,27.80
2018-07-31T09:46:04.434Z,28.10
2018-07-31T09:48:32.799Z,28.50
2018-07-31T09:51:01.413Z,28.80
2018-07-31T09:53:30.312Z,29.10
2018-07-31T09:55:58.710Z,29.10
2018-07-31T09:58:30.756Z,28.90
2018-07-31T10:01:04.450Z,28.60
2018-07-31T10:03:32.845Z,28.60
2018-07-31T10:06:01.217Z,28.60
2018-07-31T10:08:30.561Z,28.60
2018-07-31T10:10:58.966Z,28.60
2018-07-31T10:13:27.296Z,28.60
2018-07-31T10:15:55.657Z,28.60
2018-07-31T10:18:24.045Z,28.60
2018-07-31T10:20:55.943Z,28.70
2018-07-31T10:23:24.345Z,28.80
2018-07-31T10:25:52.727Z,28.70
2018-07-31T10:28:21.160Z,28.80
2018-07-31T10:30:49.581Z,29.20
2018-07-31T10:33:17.892Z,29.50
2018-07-31T10:35:46.250Z,29.70
2018-07-31T10:38:14.643Z,29.80
2018-07-31T10:40:43.107Z,29.50
2018-07-31T10:43:11.461Z,29.10
2018-07-31T10:45:39.893Z,28.60
2018-07-31T10:48:08.277Z,28.40
2018-07-31T10:50:36.745Z,28.30
2018-07-31T10:53:05.175Z,28.50
2018-07-31T10:55:33.531Z,28.60
2018-07-31T10:58:01.950Z,28.80
2018-07-31T11:00:30.332Z,29.00
2018-07-31T11:02:58.719Z,29.10
2018-07-31T11:05:27.062Z,29.20
2018-07-31T11:07:55.421Z,28.80
2018-07-31T11:12:51.843Z,28.20
2018-07-31T11:15:23.285Z,28.30
2018-07-31T11:17:51.677Z,28.50
2018-07-31T11:20:20.067Z,29.00
2018-07-31T11:22:48.446Z,29.00
2018-07-31T11:25:16.830Z,28.90
2018-07-31T11:27:45.264Z,28.50
2018-07-31T11:30:13.661Z,28.00
2018-07-31T11:32:41.987Z,28.00
2018-07-31T11:35:10.393Z,28.30
2018-07-31T11:37:38.799Z,28.30
2018-07-31T11:40:07.183Z,28.10
2018-07-31T11:42:35.649Z,27.40
2018-07-31T11:45:04.317Z,27.10
2018-07-31T11:47:33.018Z,26.80
2018-07-31T11:50:01.519Z,26.80
2018-07-31T11:52:31.279Z,27.10
2018-07-31T11:57:27.811Z,27.40
2018-07-31T11:59:56.325Z,27.80
2018-07-31T12:04:52.717Z,27.50
2018-07-31T12:07:21.085Z,27.50
2018-07-31T12:09:49.486Z,27.70
2018-07-31T12:12:17.895Z,27.90
2018-07-31T12:14:46.287Z,27.90
2018-07-31T12:17:14.685Z,27.50
2018-07-31T12:19:43.081Z,27.40
2018-07-31T12:22:11.451Z,27.30
2018-07-31T12:24:39.927Z,27.50
2018-07-31T12:27:08.341Z,27.70
2018-07-31T12:29:36.756Z,27.90
2018-07-31T12:32:05.276Z,28.10
2018-07-31T12:34:33.709Z,28.10
2018-07-31T12:37:02.074Z,28.10
2018-07-31T12:39:30.487Z,27.90
2018-07-31T12:41:58.887Z,27.60
2018-07-31T12:44:27.242Z,27.50
2018-07-31T12:46:55.583Z,27.20
2018-07-31T12:49:23.971Z,27.00
2018-07-31T12:51:52.341Z,26.60
2018-07-31T12:54:20.731Z,26.70
2018-07-31T12:56:49.213Z,26.80
2018-07-31T12:59:17.587Z,27.10
2018-07-31T13:01:45.961Z,27.10
2018-07-31T13:04:14.407Z,26.80
2018-07-31T13:06:42.919Z,26.90
2018-07-31T13:09:11.362Z,27.00
2018-07-31T13:11:39.732Z,27.20
2018-07-31T13:14:08.221Z,27.30
2018-07-31T13:16:36.593Z,27.20
2018-07-31T13:19:05.060Z,27.10
2018-07-31T13:21:33.491Z,27.10
2018-07-31T13:24:02.163Z,27.10
2018-07-31T13:26:30.553Z,26.90
2018-07-31T13:28:58.947Z,26.70
2018-07-31T13:31:28.467Z,27.10
2018-07-31T13:33:57.601Z,27.30
2018-07-31T13:36:26.105Z,26.90
2018-07-31T13:38:54.473Z,26.60
2018-07-31T13:41:22.865Z,26.40
2018-07-31T13:43:57.036Z,26.30
2018-07-31T13:46:25.377Z,26.10
2018-07-31T13:48:53.743Z,26.60
2018-07-31T13:51:22.171Z,26.70
2018-07-31T13:53:50.551Z,26.90
2018-07-31T13:56:19.417Z,27.20
2018-07-31T13:58:47.777Z,27.50
2018-07-31T14:01:17.067Z,27.40
2018-07-31T14:03:45.427Z,27.50
2018-07-31T14:06:14.297Z,27.80
2018-07-31T14:08:42.728Z,28.00
2018-07-31T14:11:11.163Z,27.90
2018-07-31T14:13:39.582Z,27.80
2018-07-31T14:16:08.034Z,27.60
2018-07-31T14:18:36.720Z,27.70
2018-07-31T14:21:05.090Z,27.90
2018-07-31T14:23:33.431Z,27.80
2018-07-31T14:26:01.815Z,27.60
2018-07-31T14:28:30.166Z,27.60
2018-07-31T14:30:58.565Z,27.60
2018-07-31T14:33:26.924Z,27.70
2018-07-31T14:35:55.674Z,27.50
2018-07-31T14:38:23.999Z,27.40
2018-07-31T14:40:54.043Z,27.30
2018-07-31T14:43:26.289Z,27.20
2018-07-31T14:45:54.901Z,27.20
2018-07-31T14:48:23.342Z,27.20
2018-07-31T14:50:51.735Z,27.10
2018-07-31T14:53:20.635Z,27.20
2018-07-31T14:55:49.001Z,27.30
2018-07-31T14:58:17.347Z,27.10
2018-07-31T15:00:45.693Z,27.10
2018-07-31T15:03:14.038Z,27.20
2018-07-31T15:05:44.739Z,27.30
2018-07-31T15:08:13.095Z,27.40
2018-07-31T15:10:41.494Z,27.40
2018-07-31T15:13:10.891Z,27.20
2018-07-31T15:15:39.248Z,27.10
2018-07-31T15:18:07.641Z,27.10
2018-07-31T15:20:38.149Z,27.00
2018-07-31T15:23:08.294Z,27.10
2018-07-31T15:25:36.709Z,27.20
2018-07-31T15:28:05.106Z,27.30
2018-07-31T15:30:33.494Z,27.40
2018-07-31T15:33:01.841Z,27.50
2018-07-31T15:35:30.197Z,27.70
2018-07-31T15:37:58.821Z,27.60
2018-07-31T15:40:27.195Z,27.60
2018-07-31T15:42:55.630Z,27.50
2018-07-31T15:45:23.964Z,27.40
2018-07-31T15:47:54.297Z,27.20
2018-07-31T15:50:22.637Z,27.20
2018-07-31T15:52:51.023Z,27.10
2018-07-31T15:55:19.413Z,27.10
2018-07-31T15:57:47.778Z,27.20
2018-07-31T16:00:16.171Z,27.30
2018-07-31T16:02:44.537Z,27.20
2018-07-31T16:05:12.897Z,27.30
2018-07-31T16:07:41.244Z,27.40
2018-07-31T16:10:10.049Z,27.30
2018-07-31T16:12:38.665Z,27.40
2018-07-31T16:15:07.112Z,27.60
2018-07-31T16:17:35.493Z,27.80
2018-07-31T16:20:04.077Z,28.00
2018-07-31T16:22:32.487Z,27.80
2018-07-31T16:25:00.825Z,27.70
2018-07-31T16:27:29.215Z,27.50
2018-07-31T16:29:57.771Z,27.50
2018-07-31T16:32:26.251Z,27.50
2018-07-31T16:34:54.661Z,27.40
2018-07-31T16:37:23.089Z,27.50
2018-07-31T16:39:51.879Z,27.10
2018-07-31T16:42:20.887Z,27.00
2018-07-31T16:44:49.383Z,26.90
2018-07-31T16:47:17.777Z,26.70
2018-07-31T16:49:46.197Z,26.40
2018-07-31T16:52:14.587Z,26.50
2018-07-31T16:54:43.019Z,26.10
2018-07-31T16:57:11.405Z,26.20
2018-07-31T16:59:39.839Z,26.20
2018-07-31T17:02:08.269Z,26.10
2018-07-31T17:04:36.667Z,26.00
2018-07-31T17:07:05.104Z,25.90
2018-07-31T17:09:33.454Z,25.80
2018-07-31T17:12:02.043Z,25.80
2018-07-31T17:14:31.313Z,25.70
2018-07-31T17:17:00.877Z,25.60
2018-07-31T17:19:29.254Z,25.70
2018-07-31T17:21:57.649Z,25.70
2018-07-31T17:24:26.057Z,25.70
2018-07-31T17:26:54.485Z,25.50
2018-07-31T17:29:22.885Z,25.40
2018-07-31T17:31:51.247Z,25.10
2018-07-31T17:34:19.630Z,25.00
2018-07-31T17:36:47.945Z,25.20
2018-07-31T17:39:16.309Z,25.20
2018-07-31T17:41:44.677Z,25.30
2018-07-31T17:44:13.097Z,25.30
2018-07-31T17:46:41.421Z,25.00
2018-07-31T17:49:09.883Z,24.90
2018-07-31T17:51:38.337Z,25.10
2018-07-31T17:54:06.943Z,25.10
2018-07-31T17:56:35.343Z,25.00
2018-07-31T17:59:03.695Z,25.00
2018-07-31T18:01:32.102Z,25.10
2018-07-31T18:04:00.673Z,24.90
2018-07-31T18:06:29.103Z,24.90
2018-07-31T18:08:57.513Z,24.90
2018-07-31T18:11:25.877Z,24.70
2018-07-31T18:13:54.256Z,24.70
2018-07-31T18:16:22.675Z,24.70
2018-07-31T18:18:51.047Z,24.80
2018-07-31T18:21:19.415Z,24.90
2018-07-31T18:23:47.811Z,24.80
2018-07-31T18:26:16.169Z,24.60
2018-07-31T18:28:44.521Z,24.70
2018-07-31T18:31:12.927Z,24.50
2018-07-31T18:33:41.789Z,24.50
2018-07-31T18:36:10.174Z,24.50
2018-07-31T18:38:38.611Z,24.30
2018-07-31T18:41:07.067Z,24.10
2018-07-31T18:43:35.413Z,24.00
2018-07-31T18:46:03.839Z,23.90
2018-07-31T18:48:32.214Z,23.80
2018-07-31T18:51:00.677Z,23.80
2018-07-31T18:53:29.088Z,23.60
2018-07-31T18:55:57.482Z,23.50
2018-07-31T18:58:25.975Z,23.40
2018-07-31T19:00:54.901Z,23.30
2018-07-31T19:03:23.239Z,23.20
2018-07-31T19:05:51.669Z,23.30
2018-07-31T19:08:20.033Z,23.20
2018-07-31T19:10:48.448Z,23.20
2018-07-31T19:13:16.863Z,23.10
2018-07-31T19:15:45.309Z,23.00
2018-07-31T19:18:13.759Z,23.00
2018-07-31T19:20:42.202Z,22.90
2018-07-31T19:23:10.649Z,22.70
2018-07-31T19:25:39.055Z,22.70
2018-07-31T19:28:07.628Z,22.60
2018-07-31T19:30:35.967Z,22.50
2018-07-31T19:33:04.470Z,22.40
2018-07-31T19:35:32.844Z,22.30
2018-07-31T19:38:01.322Z,22.30
2018-07-31T19:40:29.876Z,22.30
2018-07-31T19:42:58.236Z,22.30
2018-07-31T19:45:26.706Z,22.20
2018-07-31T19:47:55.109Z,22.10
2018-07-31T19:50:23.593Z,22.00
2018-07-31T19:52:52.085Z,21.90
2018-07-31T19:55:20.578Z,21.90
2018-07-31T19:57:50.011Z,21.80
2018-07-31T20:00:18.468Z,21.80
2018-07-31T20:02:46.873Z,21.70
2018-07-31T20:05:15.288Z,21.70
2018-07-31T20:07:43.749Z,21.70
2018-07-31T20:10:12.200Z,21.60
2018-07-31T20:12:40.643Z,21.60
2018-07-31T20:17:37.261Z,21.60
2018-07-31T20:20:05.910Z,21.60
2018-07-31T20:22:34.385Z,21.60
2018-07-31T20:25:02.886Z,21.50
2018-07-31T20:27:31.319Z,21.50
2018-07-31T20:29:59.775Z,21.50
2018-07-31T20:32:28.284Z,21.40
2018-07-31T20:34:56.799Z,21.30
2018-07-31T20:37:28.221Z,21.20
2018-07-31T20:39:56.679Z,21.20
2018-07-31T20:42:25.204Z,21.10
2018-07-31T20:44:53.815Z,21.10
2018-07-31T20:47:22.229Z,21.10
2018-07-31T20:49:50.640Z,21.00
2018-07-31T20:54:47.166Z,21.00
2018-07-31T20:57:15.558Z,20.90
2018-07-31T20:59:44.001Z,20.90
2018-07-31T21:02:12.436Z,20.90
2018-07-31T21:04:40.849Z,20.90
2018-07-31T21:07:09.342Z,20.80
2018-07-31T21:09:37.735Z,20.80
2018-07-31T21:12:06.090Z,20.80
2018-07-31T21:14:34.516Z,20.70
2018-07-31T21:17:02.890Z,20.70
2018-07-31T21:19:31.250Z,20.60
2018-07-31T21:21:59.657Z,20.40
2018-07-31T21:24:28.034Z,20.50
2018-07-31T21:26:56.412Z,20.50
2018-07-31T21:29:24.817Z,20.40
2018-07-31T21:31:53.242Z,20.30
2018-07-31T21:34:21.642Z,20.30
2018-07-31T21:36:49.984Z,20.40
2018-07-31T21:39:18.383Z,20.40
2018-07-31T21:41:46.795Z,20.50
2018-07-31T21:44:15.202Z,20.50
2018-07-31T21:46:43.649Z,20.60
2018-07-31T21:49:12.006Z,20.60
2018-07-31T21:51:40.448Z,20.60
2018-07-31T21:54:08.854Z,20.70
2018-07-31T21:56:37.384Z,20.70
2018-07-31T21:59:05.919Z,20.70
2018-07-31T22:01:34.325Z,20.70
2018-07-31T22:04:02.704Z,20.60
2018-07-31T22:06:31.107Z,20.60
2018-07-31T22:08:59.498Z,20.50
2018-07-31T22:11:27.873Z,20.50
2018-07-31T22:13:56.294Z,20.40
2018-07-31T22:16:28.456Z,20.40
2018-07-31T22:18:56.867Z,20.30
2018-07-31T22:21:25.278Z,20.30
2018-07-31T22:23:53.702Z,20.20
2018-07-31T22:26:22.098Z,20.20
2018-07-31T22:28:50.626Z,20.20
2018-07-31T22:31:19.044Z,20.20
2018-07-31T22:33:47.415Z,20.20
2018-07-31T22:36:15.966Z,20.20
2018-07-31T22:38:44.336Z,20.20
2018-07-31T22:41:12.724Z,20.20
2018-07-31T22:43:42.088Z,20.20
2018-07-31T22:46:10.434Z,20.20
2018-07-31T22:48:38.804Z,20.10
2018-07-31T22:51:07.265Z,20.20
2018-07-31T22:53:35.634Z,20.10
2018-07-31T22:56:03.992Z,20.10
2018-07-31T22:58:32.328Z,20.10
2018-07-31T23:01:00.685Z,20.00
2018-07-31T23:03:29.119Z,20.00
2018-07-31T23:05:57.467Z,20.00
2018-07-31T23:08:25.811Z,19.90
2018-07-31T23:10:54.118Z,19.90
2018-07-31T23:13:22.503Z,19.90
2018-07-31T23:15:50.864Z,19.70
2018-07-31T23:18:19.255Z,19.80
2018-07-31T23:20:47.668Z,19.70
2018-07-31T23:23:16.030Z,19.60
2018-07-31T23:25:44.424Z,19.50
2018-07-31T23:28:12.775Z,19.40
2018-07-31T23:30:42.252Z,19.40
2018-07-31T23:33:10.626Z,19.40
2018-07-31T23:35:40.292Z,19.40
2018-07-31T23:40:36.784Z,19.20
2018-07-31T23:43:05.230Z,19.00
2018-07-31T23:45:33.660Z,19.00
2018-07-31T23:48:02.020Z,19.10
2018-07-31T23:50:30.371Z,19.00
2018-07-31T23:52:58.778Z,18.90
2018-07-31T23:55:27.182Z,18.90
2018-07-31T23:57:55.614Z,18.80
